Time;durP1;ratioP1;P1;durP2;ratioP2;P2;SDS_P1;SDS_P2;PMS_P1;PMS_P2;Temp;Humidity;BMP_temperature;BMP_pressure;BME280_temperature;BME280_humidity;BME280_pressure;Samples;Min_cycle;Max_cycle;Signal;HPM_P1;HPM_P2
2022/01/03 00:00:00;;;;;;;1.40;1.00;;;13.90;89.90;;;;;;949759;149;27402;-72
2022/01/03 00:02:27;;;;;;;2.07;1.40;;;13.70;90.30;;;;;;939796;149;27419;-74
2022/01/03 00:04:53;;;;;;;4.30;2.47;;;13.60;90.60;;;;;;942838;148;27333;-72
2022/01/03 00:07:20;;;;;;;4.07;1.63;;;13.50;91.00;;;;;;944011;148;27419;-72
2022/01/03 00:09:46;;;;;;;7.80;1.80;;;13.50;91.50;;;;;;942181;148;27643;-72
2022/01/03 00:12:13;;;;;;;3.30;1.57;;;13.40;91.80;;;;;;946663;148;27297;-72
2022/01/03 00:14:40;;;;;;;3.70;1.60;;;13.40;92.10;;;;;;942870;148;27437;-73
2022/01/03 00:17:09;;;;;;;4.77;1.73;;;13.30;92.40;;;;;;946385;148;27441;-73
2022/01/03 00:19:35;;;;;;;3.93;1.50;;;13.30;92.70;;;;;;953701;148;27398;-73
2022/01/03 00:22:02;;;;;;;1.77;1.40;;;13.20;92.90;;;;;;947435;148;27372;-73
2022/01/03 00:24:28;;;;;;;2.70;1.50;;;13.20;93.20;;;;;;954527;148;27610;-75
2022/01/03 00:26:55;;;;;;;4.77;1.80;;;13.20;93.50;;;;;;943819;148;27454;-74
2022/01/03 00:29:22;;;;;;;4.07;1.93;;;13.20;93.80;;;;;;937205;148;27462;-74
2022/01/03 00:31:48;;;;;;;3.27;1.57;;;13.10;94.10;;;;;;949709;148;27395;-72
2022/01/03 00:34:15;;;;;;;1.93;1.70;;;13.10;93.90;;;;;;941915;148;27327;-73
2022/01/03 00:36:42;;;;;;;4.80;1.87;;;13.10;94.60;;;;;;947004;148;27489;-72
2022/01/03 00:39:08;;;;;;;2.83;2.00;;;13.10;94.90;;;;;;945795;148;27291;-72
2022/01/03 00:41:38;;;;;;;4.33;2.00;;;13.10;95.00;;;;;;951153;148;27415;-72
2022/01/03 00:44:07;;;;;;;4.53;2.20;;;13.20;95.20;;;;;;941143;148;27326;-73
2022/01/03 00:46:34;;;;;;;4.63;1.97;;;13.20;95.30;;;;;;943567;148;27344;-73
2022/01/03 00:49:02;;;;;;;4.40;1.90;;;13.20;95.40;;;;;;945784;148;27442;-73
2022/01/03 00:51:29;;;;;;;11.07;2.27;;;13.20;95.50;;;;;;942510;150;27355;-74
2022/01/03 00:53:56;;;;;;;2.43;2.00;;;13.20;95.60;;;;;;936675;148;27475;-74
2022/01/03 00:56:37;;;;;;;4.87;1.83;;;13.20;95.60;;;;;;936731;148;27413;-74
2022/01/03 00:59:09;;;;;;;3.33;1.90;;;13.20;95.70;;;;;;948877;148;27742;-74
2022/01/03 01:01:33;;;;;;;2.40;1.73;;;13.20;95.80;;;;;;937227;148;27278;-74
2022/01/03 01:04:02;;;;;;;2.17;1.60;;;13.20;95.80;;;;;;935894;148;27858;-74
2022/01/03 01:06:29;;;;;;;4.13;1.77;;;13.30;95.90;;;;;;946719;148;27456;-75
2022/01/03 01:08:56;;;;;;;4.00;1.90;;;13.30;95.90;;;;;;951359;148;27368;-75
2022/01/03 01:11:28;;;;;;;4.10;1.60;;;13.30;95.90;;;;;;942373;148;27446;-75
2022/01/03 01:13:54;;;;;;;4.00;1.80;;;13.30;95.90;;;;;;940807;148;27372;-75
2022/01/03 01:16:21;;;;;;;2.30;1.43;;;13.30;95.90;;;;;;946194;148;27354;-75
2022/01/03 01:18:47;;;;;;;1.83;1.07;;;13.30;95.90;;;;;;943834;148;27410;-75
2022/01/03 01:21:14;;;;;;;2.83;1.40;;;13.30;95.80;;;;;;936978;151;27372;-74
2022/01/03 01:23:42;;;;;;;3.50;1.40;;;13.30;95.70;;;;;;934808;151;27452;-74
2022/01/03 01:28:52;;;;;;;3.40;1.67;;;13.40;95.50;;;;;;945547;148;27438;-74
2022/01/03 01:31:21;;;;;;;3.80;1.30;;;13.40;95.50;;;;;;941303;148;27414;-74
2022/01/03 01:33:53;;;;;;;3.07;0.97;;;13.30;95.40;;;;;;955522;148;27427;-75
2022/01/03 01:36:20;;;;;;;5.80;1.37;;;13.40;95.50;;;;;;942372;148;27310;-75
2022/01/03 01:38:46;;;;;;;3.80;1.10;;;13.30;95.50;;;;;;948603;148;27461;-75
2022/01/03 01:41:13;;;;;;;2.13;1.00;;;13.30;95.60;;;;;;960788;146;27381;-75
2022/01/03 01:43:40;;;;;;;2.57;1.17;;;13.30;95.60;;;;;;960689;148;27358;-75
2022/01/03 01:46:08;;;;;;;2.17;1.10;;;13.30;95.60;;;;;;962155;146;27312;-75
2022/01/03 01:48:33;;;;;;;3.33;1.10;;;13.40;95.70;;;;;;975935;145;27436;-75
2022/01/03 01:51:02;;;;;;;1.17;0.90;;;13.40;95.60;;;;;;938469;149;27368;-75
2022/01/03 01:53:29;;;;;;;3.97;1.30;;;13.30;95.50;;;;;;951419;146;27361;-75
2022/01/03 01:55:55;;;;;;;2.67;1.00;;;13.40;95.60;;;;;;951498;146;27311;-75
2022/01/03 01:58:31;;;;;;;3.10;1.20;;;13.40;95.50;;;;;;949465;147;27322;-75
2022/01/03 02:01:00;;;;;;;3.13;1.30;;;13.40;95.20;;;;;;946165;149;27407;-76
2022/01/03 02:03:45;;;;;;;1.82;1.05;;;13.40;95.40;;;;;;948372;149;27446;-75
2022/01/03 02:06:29;;;;;;;6.95;1.10;;;13.40;95.30;;;;;;932813;149;27276;-75
2022/01/03 02:09:02;;;;;;;2.20;0.83;;;13.40;95.30;;;;;;943584;149;27417;-75
2022/01/03 02:11:47;;;;;;;2.13;0.83;;;13.40;95.10;;;;;;935472;152;27388;-75
2022/01/03 02:14:14;;;;;;;2.40;1.10;;;13.40;95.00;;;;;;922201;149;27336;-75
2022/01/03 02:16:43;;;;;;;0.97;0.90;;;13.40;94.90;;;;;;936550;148;27409;-75
2022/01/03 02:19:10;;;;;;;3.23;1.30;;;13.40;94.80;;;;;;943737;147;27947;-75
2022/01/03 02:21:36;;;;;;;2.70;0.93;;;13.40;94.60;;;;;;936074;149;27324;-75
2022/01/03 02:24:06;;;;;;;2.03;1.00;;;13.40;94.30;;;;;;934925;149;27357;-75
2022/01/03 02:26:32;;;;;;;2.37;0.83;;;13.30;94.10;;;;;;936823;147;27417;-75
2022/01/03 02:28:59;;;;;;;3.17;0.80;;;13.30;93.90;;;;;;955526;146;27393;-75
2022/01/03 02:31:26;;;;;;;2.03;0.93;;;13.20;93.70;;;;;;934771;149;27395;-75
2022/01/03 02:33:52;;;;;;;1.90;0.90;;;13.10;93.40;;;;;;961081;147;27254;-74
2022/01/03 02:36:19;;;;;;;1.27;0.57;;;13.00;93.30;;;;;;954634;147;27408;-74
2022/01/03 02:38:48;;;;;;;2.17;1.20;;;12.90;93.30;;;;;;944312;147;27656;-74
2022/01/03 02:41:15;;;;;;;1.80;1.23;;;12.90;93.50;;;;;;944128;151;27464;-75
2022/01/03 02:43:42;;;;;;;3.37;1.70;;;12.80;93.60;;;;;;914447;150;27374;-74
2022/01/03 02:46:09;;;;;;;1.63;0.90;;;12.70;93.60;;;;;;935756;149;27398;-75
2022/01/03 02:48:35;;;;;;;3.50;1.37;;;12.60;93.60;;;;;;929734;149;27316;-74
2022/01/03 02:51:01;;;;;;;3.10;1.57;;;12.50;94.00;;;;;;938637;149;27339;-74
2022/01/03 02:53:31;;;;;;;2.20;0.93;;;12.40;93.70;;;;;;945535;149;27392;-75
2022/01/03 02:55:57;;;;;;;1.33;0.83;;;12.30;93.80;;;;;;937519;147;27349;-74
2022/01/03 02:58:24;;;;;;;2.67;1.00;;;12.20;93.90;;;;;;951110;147;27402;-73
2022/01/03 03:00:51;;;;;;;1.13;0.97;;;12.20;93.90;;;;;;949330;147;27352;-73
2022/01/03 03:03:17;;;;;;;3.17;1.17;;;12.10;94.00;;;;;;922393;149;27415;-73
2022/01/03 03:05:46;;;;;;;1.60;1.07;;;12.00;94.10;;;;;;926984;150;27380;-73
2022/01/03 03:08:13;;;;;;;2.67;1.13;;;11.90;94.40;;;;;;942285;147;27414;-73
2022/01/03 03:10:39;;;;;;;1.73;1.13;;;11.90;94.40;;;;;;951565;146;27400;-72
2022/01/03 03:13:06;;;;;;;2.70;1.17;;;11.80;94.40;;;;;;930461;149;27388;-73
2022/01/03 03:15:33;;;;;;;1.27;0.90;;;11.70;94.40;;;;;;932880;149;27352;-73
2022/01/03 03:17:59;;;;;;;6.17;1.43;;;11.60;94.50;;;;;;937545;151;28158;-72
2022/01/03 03:20:26;;;;;;;3.70;1.10;;;11.60;94.70;;;;;;938346;149;27431;-73
2022/01/03 03:22:52;;;;;;;5.27;1.23;;;11.50;94.80;;;;;;951851;147;27399;-74
2022/01/03 03:25:28;;;;;;;2.27;1.03;;;11.40;94.80;;;;;;935599;149;27346;-74
2022/01/03 03:27:54;;;;;;;1.67;0.97;;;11.40;95.00;;;;;;931752;149;27294;-73
2022/01/03 03:30:21;;;;;;;2.47;1.40;;;11.30;95.10;;;;;;958928;147;27352;-74
2022/01/03 03:32:48;;;;;;;2.70;1.20;;;11.30;95.20;;;;;;929881;153;27358;-77
2022/01/03 03:35:14;;;;;;;1.70;1.00;;;11.20;95.30;;;;;;921298;150;27422;-75
2022/01/03 03:37:41;;;;;;;5.07;1.40;;;11.20;95.40;;;;;;936208;149;27668;-75
2022/01/03 03:40:07;;;;;;;2.00;1.03;;;11.20;95.70;;;;;;936389;152;27350;-77
2022/01/03 03:42:36;;;;;;;1.40;0.93;;;11.20;96.10;;;;;;930202;149;27310;-75
2022/01/03 03:45:03;;;;;;;3.80;1.50;;;11.20;96.30;;;;;;941860;149;27299;-76
2022/01/03 03:47:32;;;;;;;4.73;1.40;;;11.30;96.50;;;;;;933966;149;27766;-77
2022/01/03 03:49:59;;;;;;;3.20;1.00;;;11.30;96.80;;;;;;933806;152;27840;-75
2022/01/03 03:52:25;;;;;;;6.97;1.70;;;11.30;97.30;;;;;;938821;149;27438;-76
2022/01/03 03:54:52;;;;;;;2.23;1.03;;;11.40;97.00;;;;;;948984;148;27404;-77
2022/01/03 03:57:19;;;;;;;2.37;0.97;;;11.50;97.10;;;;;;940246;148;27342;-75
2022/01/03 03:59:45;;;;;;;1.70;1.23;;;11.50;97.00;;;;;;939701;149;27362;-75
2022/01/03 04:02:12;;;;;;;2.60;1.03;;;11.60;96.90;;;;;;948499;149;27434;-73
2022/01/03 04:04:38;;;;;;;1.40;1.10;;;11.60;96.90;;;;;;941191;149;27367;-74
2022/01/03 04:07:08;;;;;;;3.00;1.20;;;11.60;96.90;;;;;;939007;149;27450;-74
2022/01/03 04:09:34;;;;;;;3.83;1.10;;;11.70;96.90;;;;;;936338;147;27344;-75
2022/01/03 04:12:01;;;;;;;5.07;1.40;;;11.70;96.80;;;;;;935728;147;27281;-75
2022/01/03 04:14:28;;;;;;;3.50;1.10;;;11.80;96.80;;;;;;930628;152;27381;-75
2022/01/03 04:16:54;;;;;;;3.43;1.80;;;11.80;96.80;;;;;;941196;148;27354;-74
2022/01/03 04:19:21;;;;;;;2.77;0.97;;;11.90;96.80;;;;;;941023;148;27341;-75
2022/01/03 04:21:47;;;;;;;3.47;1.73;;;11.90;96.80;;;;;;945535;150;27344;-76
2022/01/03 04:24:14;;;;;;;3.17;1.50;;;12.00;97.20;;;;;;955221;148;27329;-74
2022/01/03 04:26:41;;;;;;;1.77;0.90;;;12.00;96.90;;;;;;938356;148;27356;-75
2022/01/03 04:29:07;;;;;;;3.83;1.30;;;12.10;96.90;;;;;;945560;148;27330;-75
2022/01/03 04:31:34;;;;;;;3.40;1.47;;;12.20;97.00;;;;;;948752;148;27354;-76
2022/01/03 04:34:00;;;;;;;2.33;1.10;;;12.20;97.00;;;;;;936020;148;27788;-76
2022/01/03 04:36:27;;;;;;;3.03;1.17;;;12.30;96.90;;;;;;947973;148;27383;-76
2022/01/03 04:38:53;;;;;;;4.20;1.40;;;12.30;96.70;;;;;;950991;147;27329;-76
2022/01/03 04:41:20;;;;;;;2.07;1.20;;;12.40;96.70;;;;;;934985;149;27436;-75
2022/01/03 04:43:47;;;;;;;1.90;1.00;;;12.40;96.70;;;;;;928234;150;27354;-76
2022/01/03 04:46:13;;;;;;;2.73;1.13;;;12.50;96.70;;;;;;941955;149;27380;-75
2022/01/03 04:48:40;;;;;;;1.23;1.13;;;12.50;96.40;;;;;;954221;148;27341;-75
2022/01/03 04:51:06;;;;;;;1.37;1.13;;;12.50;96.10;;;;;;949175;149;27267;-74
2022/01/03 04:53:37;;;;;;;2.83;1.57;;;12.60;95.90;;;;;;942901;149;27314;-74
2022/01/03 04:56:00;;;;;;;0.77;0.77;;;12.50;95.60;;;;;;939240;148;27722;-75
2022/01/03 04:58:26;;;;;;;1.87;1.20;;;12.50;95.40;;;;;;947475;149;27398;-74
2022/01/03 05:00:56;;;;;;;2.17;1.10;;;12.40;95.10;;;;;;948647;147;27371;-74
2022/01/03 05:03:22;;;;;;;1.67;1.10;;;12.40;95.00;;;;;;945551;147;27445;-74
2022/01/03 05:05:49;;;;;;;2.37;0.80;;;12.40;94.90;;;;;;962911;147;27294;-75
2022/01/03 05:08:15;;;;;;;3.57;1.00;;;12.30;94.90;;;;;;963592;147;27420;-74
2022/01/03 05:10:42;;;;;;;3.23;1.20;;;12.30;94.90;;;;;;948260;147;27456;-74
2022/01/03 05:13:09;;;;;;;1.57;0.97;;;12.20;95.00;;;;;;946947;147;27418;-73
2022/01/03 05:15:35;;;;;;;2.03;0.80;;;12.20;95.00;;;;;;946046;149;27488;-72
2022/01/03 05:18:02;;;;;;;2.47;0.90;;;12.10;95.00;;;;;;948357;147;27332;-72
2022/01/03 05:20:31;;;;;;;2.03;1.07;;;12.10;94.90;;;;;;940340;147;27367;-73
2022/01/03 05:22:57;;;;;;;2.23;0.90;;;12.00;94.90;;;;;;945124;147;27383;-72
2022/01/03 05:25:24;;;;;;;3.07;1.10;;;11.90;94.80;;;;;;946918;150;27685;-73
2022/01/03 05:27:54;;;;;;;2.17;0.90;;;11.90;94.80;;;;;;950424;150;27326;-74
2022/01/03 05:30:20;;;;;;;1.03;0.83;;;11.90;94.90;;;;;;946621;150;27475;-73
2022/01/03 05:32:46;;;;;;;1.17;0.70;;;11.80;94.80;;;;;;953906;147;27320;-73
2022/01/03 05:35:13;;;;;;;2.77;1.47;;;11.70;94.70;;;;;;960725;147;27321;-73
2022/01/03 05:37:39;;;;;;;2.53;0.83;;;11.60;94.80;;;;;;964494;147;27301;-73
2022/01/03 05:40:06;;;;;;;2.20;0.90;;;11.60;94.90;;;;;;948346;147;27358;-72
2022/01/03 05:42:35;;;;;;;1.23;1.00;;;11.60;95.00;;;;;;947843;150;27332;-73
2022/01/03 05:45:04;;;;;;;0.87;0.70;;;11.60;95.00;;;;;;950731;150;27332;-73
2022/01/03 05:47:30;;;;;;;1.50;0.90;;;11.50;94.90;;;;;;955276;147;27384;-73
2022/01/03 05:49:56;;;;;;;2.60;0.80;;;11.50;94.90;;;;;;947445;150;28046;-73
2022/01/03 05:52:22;;;;;;;1.87;0.93;;;11.50;95.00;;;;;;948207;150;27445;-73
2022/01/03 05:54:48;;;;;;;3.00;1.20;;;11.40;95.20;;;;;;959755;147;27282;-73
2022/01/03 05:57:15;;;;;;;1.97;0.60;;;11.40;95.50;;;;;;963586;147;27321;-73
2022/01/03 05:59:41;;;;;;;1.97;1.17;;;11.40;95.80;;;;;;950385;147;27444;-73
2022/01/03 06:02:10;;;;;;;0.83;0.80;;;11.50;96.00;;;;;;945673;147;27366;-73
2022/01/03 06:04:56;;;;;;;2.50;1.03;;;11.50;96.30;;;;;;950519;147;27437;-72
2022/01/03 06:07:09;;;;;;;1.17;0.70;;;11.50;96.30;;;;;;943717;147;27395;-72
2022/01/03 06:09:36;;;;;;;2.50;0.90;;;11.50;96.30;;;;;;953291;147;27426;-73
2022/01/03 06:12:02;;;;;;;2.53;0.90;;;11.50;96.20;;;;;;949643;147;27332;-72
2022/01/03 06:14:29;;;;;;;3.33;1.00;;;11.60;96.10;;;;;;949366;147;27399;-73
2022/01/03 06:16:55;;;;;;;3.17;1.30;;;11.60;96.00;;;;;;951298;147;27841;-73
2022/01/03 06:19:22;;;;;;;1.40;0.80;;;11.50;95.90;;;;;;943223;150;27353;-73
2022/01/03 06:21:49;;;;;;;4.90;1.50;;;11.50;95.80;;;;;;951691;147;27444;-73
2022/01/03 06:24:15;;;;;;;3.03;1.20;;;11.50;95.90;;;;;;955496;147;27389;-74
2022/01/03 06:26:42;;;;;;;2.53;0.90;;;11.40;96.00;;;;;;949040;147;27432;-73
2022/01/03 06:29:11;;;;;;;3.90;1.23;;;11.40;96.30;;;;;;939360;147;27869;-73
2022/01/03 06:31:37;;;;;;;3.40;1.20;;;11.40;96.50;;;;;;951039;150;27323;-74
2022/01/03 06:34:04;;;;;;;3.70;1.70;;;11.30;96.60;;;;;;948313;150;27426;-73
2022/01/03 06:36:31;;;;;;;3.97;1.20;;;11.30;96.70;;;;;;944145;147;27870;-72
2022/01/03 06:38:57;;;;;;;5.40;1.50;;;11.30;96.70;;;;;;956731;147;27384;-71
2022/01/03 06:41:24;;;;;;;4.73;1.30;;;11.30;96.70;;;;;;953901;147;28023;-72
2022/01/03 06:43:50;;;;;;;3.77;1.40;;;11.30;96.90;;;;;;953417;147;27403;-71
2022/01/03 06:46:17;;;;;;;2.70;1.20;;;11.30;97.20;;;;;;947253;147;27336;-72
2022/01/03 06:48:45;;;;;;;3.27;1.20;;;11.30;97.40;;;;;;949713;147;27462;-72
2022/01/03 06:51:10;;;;;;;3.60;0.87;;;11.40;97.60;;;;;;957167;147;27472;-72
2022/01/03 06:53:37;;;;;;;3.93;1.10;;;11.40;97.70;;;;;;954443;147;27526;-71
2022/01/03 06:56:06;;;;;;;2.67;1.37;;;11.50;97.60;;;;;;945637;147;27414;-72
2022/01/03 06:58:33;;;;;;;3.53;1.37;;;11.50;97.50;;;;;;948899;147;27449;-72
2022/01/03 07:01:02;;;;;;;5.23;1.40;;;11.60;97.40;;;;;;949762;149;27392;-71
2022/01/03 07:03:29;;;;;;;3.67;1.40;;;11.60;97.50;;;;;;950725;149;27438;-71
2022/01/03 07:05:55;;;;;;;3.23;0.97;;;11.60;97.30;;;;;;947048;148;27351;-71
2022/01/03 07:08:22;;;;;;;3.10;1.20;;;11.60;97.10;;;;;;935336;149;27426;-72
2022/01/03 07:10:48;;;;;;;3.00;1.10;;;11.70;97.00;;;;;;943385;151;27461;-72
2022/01/03 07:13:15;;;;;;;4.00;1.10;;;11.70;96.90;;;;;;944761;149;27326;-73
2022/01/03 07:21:13;;;;;;;4.37;1.37;;;11.60;96.60;;;;;;944488;149;27348;-72
2022/01/03 07:23:40;;;;;;;2.70;1.00;;;11.60;96.30;;;;;;936839;149;27499;-73
2022/01/03 07:26:07;;;;;;;5.33;1.37;;;11.60;96.30;;;;;;948970;149;27373;-70
2022/01/03 07:28:33;;;;;;;1.73;1.03;;;11.60;96.40;;;;;;942604;151;27439;-70
2022/01/03 07:31:00;;;;;;;1.93;0.70;;;11.50;96.50;;;;;;950032;149;27429;-70
2022/01/03 07:33:26;;;;;;;2.43;1.47;;;11.50;96.60;;;;;;942243;148;27334;-71
2022/01/03 07:35:53;;;;;;;2.63;1.27;;;11.50;96.50;;;;;;940068;149;27788;-71
2022/01/03 07:38:20;;;;;;;3.63;1.03;;;11.50;96.60;;;;;;937358;149;27469;-71
2022/01/03 07:40:46;;;;;;;2.33;0.80;;;11.50;96.60;;;;;;959887;148;27314;-69
2022/01/03 07:43:13;;;;;;;4.70;1.20;;;11.50;96.70;;;;;;937842;149;27474;-70
2022/01/03 07:45:39;;;;;;;3.50;1.43;;;11.50;96.80;;;;;;948667;148;27345;-71
2022/01/03 07:48:06;;;;;;;1.43;0.90;;;11.40;96.80;;;;;;943940;149;27437;-74
2022/01/03 07:50:33;;;;;;;5.33;1.30;;;11.40;96.90;;;;;;939828;149;27374;-74
2022/01/03 07:53:00;;;;;;;4.87;1.37;;;11.40;97.20;;;;;;941757;149;27971;-74
2022/01/03 07:55:26;;;;;;;4.07;1.60;;;11.50;97.70;;;;;;934647;149;27352;-73
2022/01/03 07:57:52;;;;;;;2.87;2.00;;;11.50;97.90;;;;;;947277;149;27811;-73
2022/01/03 08:00:19;;;;;;;6.20;1.80;;;11.50;98.10;;;;;;939361;148;27399;-73
2022/01/03 08:02:45;;;;;;;4.77;1.50;;;11.50;98.30;;;;;;954596;149;27402;-73
2022/01/03 08:05:13;;;;;;;3.83;1.67;;;11.60;98.70;;;;;;945610;147;27380;-73
2022/01/03 08:07:39;;;;;;;3.70;1.03;;;11.70;98.70;;;;;;939008;149;27348;-72
2022/01/03 08:10:05;;;;;;;2.70;1.20;;;11.80;98.90;;;;;;924565;149;27375;-73
2022/01/03 08:12:32;;;;;;;5.60;1.63;;;11.90;98.90;;;;;;944309;148;27351;-73
2022/01/03 08:14:58;;;;;;;4.43;1.53;;;12.00;98.70;;;;;;947016;149;27354;-74
2022/01/03 08:17:25;;;;;;;5.57;3.00;;;12.10;98.40;;;;;;943212;149;27347;-75
2022/01/03 08:19:58;;;;;;;2.90;1.60;;;12.20;98.50;;;;;;933555;149;27442;-75
2022/01/03 08:22:26;;;;;;;6.20;1.73;;;12.20;98.10;;;;;;944628;149;27348;-74
2022/01/03 08:24:53;;;;;;;5.00;1.60;;;12.30;97.90;;;;;;946800;149;27695;-75
2022/01/03 08:27:20;;;;;;;4.50;1.50;;;12.30;97.80;;;;;;942179;148;27346;-75
2022/01/03 08:29:46;;;;;;;3.77;1.53;;;12.30;97.90;;;;;;940855;149;27349;-75
2022/01/03 08:32:13;;;;;;;6.17;1.77;;;12.40;97.70;;;;;;937717;149;27350;-75
2022/01/03 08:34:39;;;;;;;5.13;1.57;;;12.40;97.50;;;;;;948906;149;27440;-75
2022/01/03 08:37:06;;;;;;;11.17;2.30;;;12.50;97.20;;;;;;947109;149;27404;-75
2022/01/03 08:39:33;;;;;;;5.83;1.97;;;12.50;97.10;;;;;;937278;149;27419;-75
2022/01/03 08:41:59;;;;;;;3.17;1.33;;;12.50;97.00;;;;;;941294;149;27349;-74
2022/01/03 08:44:26;;;;;;;6.23;1.57;;;12.50;96.90;;;;;;933154;151;27364;-75
2022/01/03 08:46:52;;;;;;;5.37;2.03;;;12.50;96.90;;;;;;961029;149;27315;-75
2022/01/03 08:49:19;;;;;;;5.07;1.80;;;12.50;96.80;;;;;;936796;149;27414;-74
2022/01/03 08:51:46;;;;;;;6.97;2.20;;;12.60;96.90;;;;;;937259;149;27411;-74
2022/01/03 08:54:12;;;;;;;5.00;1.73;;;12.60;96.90;;;;;;940352;149;27341;-75
2022/01/03 08:56:39;;;;;;;5.93;2.13;;;12.70;96.80;;;;;;935459;151;27475;-75
2022/01/03 08:59:05;;;;;;;4.53;1.97;;;12.70;96.50;;;;;;936447;149;27953;-74
2022/01/03 09:01:32;;;;;;;6.77;2.00;;;12.70;96.40;;;;;;947709;149;27327;-74
2022/01/03 09:03:58;;;;;;;5.97;1.80;;;12.80;96.30;;;;;;929069;151;27393;-74
2022/01/03 09:06:25;;;;;;;4.07;1.70;;;12.80;96.40;;;;;;929486;150;27362;-74
2022/01/03 09:08:52;;;;;;;8.07;2.30;;;12.80;96.40;;;;;;935166;150;27325;-74
2022/01/03 09:11:18;;;;;;;5.83;1.97;;;12.90;96.40;;;;;;935157;150;27407;-74
2022/01/03 09:13:45;;;;;;;3.73;1.53;;;12.90;96.40;;;;;;933250;150;27330;-74
2022/01/03 09:16:11;;;;;;;4.20;1.60;;;13.00;96.50;;;;;;922805;150;27501;-74
2022/01/03 09:18:38;;;;;;;9.23;2.00;;;13.10;96.40;;;;;;950075;150;27378;-74
2022/01/03 09:21:05;;;;;;;12.77;5.60;;;13.10;96.20;;;;;;925668;150;27362;-74
2022/01/03 09:23:35;;;;;;;9.97;5.70;;;13.10;96.00;;;;;;926542;150;27353;-74
2022/01/03 09:28:49;;;;;;;11.40;4.60;;;13.20;95.80;;;;;;935984;150;27327;-74
2022/01/03 09:31:18;;;;;;;15.67;6.13;;;13.30;95.60;;;;;;933926;150;27928;-74
2022/01/03 09:33:45;;;;;;;9.17;3.97;;;13.30;95.60;;;;;;949629;150;27352;-74
2022/01/03 09:36:11;;;;;;;6.13;3.53;;;13.30;95.50;;;;;;946655;150;27468;-75
2022/01/03 09:38:38;;;;;;;8.00;2.92;;;13.30;95.80;;;;;;938575;150;27444;-75
2022/01/03 09:41:04;;;;;;;5.67;2.53;;;13.40;95.50;;;;;;934614;150;27422;-74
2022/01/03 09:43:37;;;;;;;5.67;2.20;;;13.40;95.70;;;;;;941968;150;27420;-74
2022/01/03 09:46:04;;;;;;;9.67;3.57;;;13.40;95.70;;;;;;933202;150;27456;-74
2022/01/03 09:48:30;;;;;;;6.37;2.83;;;13.50;95.50;;;;;;944582;150;27320;-74
2022/01/03 09:50:57;;;;;;;8.38;2.55;;;13.50;95.40;;;;;;945716;150;27371;-74
2022/01/03 09:53:23;;;;;;;6.37;2.20;;;13.50;95.20;;;;;;941697;150;27288;-74
2022/01/03 09:55:53;;;;;;;3.40;1.85;;;13.60;95.20;;;;;;930113;153;27391;-74
2022/01/03 09:58:19;;;;;;;6.87;2.30;;;13.60;95.20;;;;;;932822;150;27473;-74
2022/01/03 10:00:46;;;;;;;6.10;1.60;;;13.70;95.10;;;;;;943643;150;27381;-74
2022/01/03 10:03:13;;;;;;;6.08;1.90;;;13.70;94.90;;;;;;940958;148;27543;-74
2022/01/03 10:05:39;;;;;;;3.90;1.60;;;13.80;95.00;;;;;;948942;148;27421;-74
2022/01/03 10:08:06;;;;;;;6.23;2.33;;;13.80;94.40;;;;;;937213;148;27381;-74
2022/01/03 10:10:32;;;;;;;9.37;3.23;;;13.80;94.30;;;;;;946803;148;27455;-74
2022/01/03 10:12:59;;;;;;;8.23;4.37;;;13.80;94.30;;;;;;948564;148;27406;-74
2022/01/03 10:15:25;;;;;;;6.50;3.60;;;13.90;94.10;;;;;;948212;148;27354;-74
2022/01/03 10:17:52;;;;;;;5.80;2.10;;;13.90;94.00;;;;;;955210;148;27314;-74
2022/01/03 10:20:19;;;;;;;3.30;1.90;;;13.90;94.00;;;;;;945244;148;27445;-74
2022/01/03 10:22:45;;;;;;;7.17;1.95;;;13.90;93.80;;;;;;944595;148;27376;-75
2022/01/03 10:25:18;;;;;;;5.97;2.03;;;14.00;93.80;;;;;;949413;148;27385;-74
2022/01/03 10:27:47;;;;;;;6.87;2.17;;;14.00;93.90;;;;;;945927;148;27440;-74
2022/01/03 10:30:16;;;;;;;8.35;2.45;;;14.00;93.90;;;;;;948102;148;27417;-74
2022/01/03 10:32:41;;;;;;;3.80;1.98;;;14.00;94.00;;;;;;943429;148;27344;-74
2022/01/03 10:35:13;;;;;;;4.70;1.50;;;14.00;93.90;;;;;;947868;148;27343;-74
2022/01/03 10:37:40;;;;;;;6.42;1.92;;;14.00;93.80;;;;;;941499;148;27769;-74
2022/01/03 10:40:21;;;;;;;7.80;2.20;;;14.00;93.90;;;;;;948796;148;27384;-74
2022/01/03 10:42:48;;;;;;;7.65;2.08;;;14.00;93.90;;;;;;942051;148;27320;-73
2022/01/03 10:45:14;;;;;;;6.17;2.10;;;14.00;93.80;;;;;;946525;148;27344;-73
2022/01/03 10:47:42;;;;;;;5.30;1.70;;;14.00;93.80;;;;;;943245;148;27431;-73
2022/01/03 10:50:17;;;;;;;4.70;1.67;;;14.00;93.90;;;;;;953371;148;27348;-73
2022/01/03 10:52:43;;;;;;;7.43;2.13;;;14.10;94.00;;;;;;940431;148;27453;-73
2022/01/03 10:55:19;;;;;;;7.13;2.07;;;14.10;94.00;;;;;;947970;148;27328;-73
2022/01/03 10:57:48;;;;;;;5.07;2.03;;;14.20;94.00;;;;;;951199;148;27285;-73
2022/01/03 11:00:17;;;;;;;7.70;2.40;;;14.20;93.80;;;;;;939134;148;27424;-73
2022/01/03 11:03:10;;;;;;;7.22;2.10;;;14.30;93.80;;;;;;946394;148;27434;-73
2022/01/03 11:05:38;;;;;;;3.98;2.02;;;14.30;93.60;;;;;;943536;149;27484;-73
2022/01/03 11:10:44;;;;;;;4.72;2.30;;;14.40;93.40;;;;;;936399;151;27341;-73
2022/01/03 11:13:16;;;;;;;5.33;2.00;;;14.40;93.30;;;;;;938287;150;27361;-73
2022/01/03 11:16:00;;;;;;;4.03;2.22;;;14.40;93.20;;;;;;933948;151;27373;-73
2022/01/03 11:18:35;;;;;;;8.57;3.13;;;14.40;93.10;;;;;;936599;152;27333;-73
2022/01/03 11:21:02;;;;;;;7.40;3.42;;;14.40;93.00;;;;;;947141;148;27378;-73
2022/01/03 11:23:29;;;;;;;8.53;3.20;;;14.50;92.90;;;;;;941690;150;27335;-73
2022/01/03 11:25:55;;;;;;;6.20;2.47;;;14.50;93.00;;;;;;949232;147;27332;-73
2022/01/03 11:28:24;;;;;;;5.55;2.00;;;14.50;93.00;;;;;;949283;150;27316;-73
2022/01/03 11:30:51;;;;;;;7.93;2.40;;;14.50;92.90;;;;;;942721;148;27319;-73
2022/01/03 11:33:18;;;;;;;7.77;2.30;;;14.50;92.70;;;;;;944761;149;27803;-73
2022/01/03 11:35:47;;;;;;;7.70;2.60;;;14.50;92.70;;;;;;942669;147;27303;-73
2022/01/03 11:38:14;;;;;;;7.62;2.75;;;14.50;92.80;;;;;;945732;147;27422;-73
2022/01/03 11:40:40;;;;;;;6.85;2.77;;;14.50;92.90;;;;;;947898;149;27320;-73
2022/01/03 11:43:07;;;;;;;8.53;3.27;;;14.50;92.90;;;;;;946115;149;27348;-73
2022/01/03 11:45:33;;;;;;;5.57;2.70;;;14.50;93.00;;;;;;946136;150;27418;-73
2022/01/03 11:48:00;;;;;;;4.45;2.60;;;14.40;93.00;;;;;;945418;149;27420;-73
2022/01/03 11:50:26;;;;;;;6.00;2.42;;;14.40;93.10;;;;;;948521;149;27423;-73
2022/01/03 11:52:53;;;;;;;8.83;3.70;;;14.30;93.20;;;;;;940556;152;27372;-73
2022/01/03 11:55:20;;;;;;;8.13;2.65;;;14.40;93.40;;;;;;940381;150;27311;-73
2022/01/03 11:58:40;;;;;;;8.80;4.13;;;14.30;93.50;;;;;;943164;149;27320;-73
2022/01/03 12:05:48;;;;;;;9.00;2.67;;;14.30;93.70;;;;;;921241;150;27442;-73
2022/01/03 12:08:29;;;;;;;12.10;2.67;;;14.30;93.80;;;;;;926998;150;27450;-73
2022/01/03 12:10:53;;;;;;;6.30;2.30;;;14.30;93.70;;;;;;955706;147;27358;-74
2022/01/03 12:13:21;;;;;;;4.33;2.50;;;14.30;93.80;;;;;;940026;150;27398;-73
2022/01/03 12:15:46;;;;;;;9.00;2.60;;;14.40;93.80;;;;;;934063;150;28030;-73
2022/01/03 12:18:30;;;;;;;5.83;2.08;;;14.40;93.70;;;;;;930650;149;27363;-73
2022/01/03 12:20:57;;;;;;;5.55;1.75;;;14.40;93.70;;;;;;932938;150;27333;-73
2022/01/03 12:23:39;;;;;;;6.12;2.33;;;14.40;93.70;;;;;;949910;147;27297;-73
2022/01/03 12:26:11;;;;;;;4.95;1.95;;;14.50;93.70;;;;;;925318;150;28052;-73
2022/01/03 12:29:09;;;;;;;8.05;2.67;;;14.50;93.20;;;;;;933444;149;27358;-73
2022/01/03 12:32:02;;;;;;;5.78;2.25;;;14.50;93.40;;;;;;926488;150;27354;-73
2022/01/03 12:34:29;;;;;;;8.63;2.42;;;14.60;93.40;;;;;;934662;149;27475;-73
2022/01/03 12:37:17;;;;;;;5.65;2.37;;;14.70;93.40;;;;;;938336;147;27345;-73
2022/01/03 12:40:02;;;;;;;6.53;2.37;;;14.70;93.30;;;;;;936037;149;27414;-73
2022/01/03 12:42:53;;;;;;;8.75;2.45;;;14.80;93.50;;;;;;951986;149;27455;-73
2022/01/03 12:45:16;;;;;;;5.60;2.12;;;14.80;93.30;;;;;;935806;149;27395;-73
2022/01/03 12:47:43;;;;;;;11.97;2.87;;;14.90;93.10;;;;;;948687;148;27326;-73
2022/01/03 12:50:21;;;;;;;5.12;2.50;;;15.00;92.90;;;;;;943557;148;27359;-72
2022/01/03 12:52:48;;;;;;;8.05;2.42;;;15.10;93.10;;;;;;933616;151;27332;-73
2022/01/03 12:55:40;;;;;;;7.00;3.17;;;15.20;92.80;;;;;;943448;148;27299;-73
2022/01/03 12:58:14;;;;;;;6.17;2.33;;;15.30;92.60;;;;;;941308;148;27845;-72
2022/01/03 13:00:44;;;;;;;6.95;2.37;;;15.30;92.30;;;;;;938937;148;27356;-72
2022/01/03 13:03:25;;;;;;;5.95;2.17;;;15.40;92.00;;;;;;953454;148;27322;-72
2022/01/03 13:06:23;;;;;;;4.15;1.98;;;15.50;91.70;;;;;;932733;148;27352;-72
2022/01/03 13:08:52;;;;;;;9.88;2.40;;;15.50;91.70;;;;;;942135;152;27314;-72